Time;durP1;ratioP1;P1;durP2;ratioP2;P2;SDS_P1;SDS_P2;PMS_P1;PMS_P2;Temp;Humidity;BMP_temperature;BMP_pressure;BME280_temperature;BME280_humidity;BME280_pressure;Samples;Min_cycle;Max_cycle;Signal;HPM_P1;HPM_P2
2021/04/24 00:00:14;;;;;;;20.58;9.60;;;15.60;58.60;16.00;99972.00;;;;343056;28;83862;-87
2021/04/24 00:00:25;;;;;;;18.00;8.80;;;15.60;58.30;15.90;99971.00;;;;342306;28;97050;-87
2021/04/24 00:00:37;;;;;;;18.05;8.93;;;15.60;58.30;16.00;99976.00;;;;341664;28;85170;-87
2021/04/24 00:00:51;;;;;;;16.88;8.93;;;15.60;58.60;16.00;99977.00;;;;340689;28;96777;-88
2021/04/24 00:01:07;;;;;;;17.85;9.07;;;15.60;59.00;15.90;99968.00;;;;341684;28;84877;-87
2021/04/24 00:01:19;;;;;;;20.40;10.57;;;15.60;58.90;15.90;99968.00;;;;340793;28;97717;-87
2021/04/24 00:01:31;;;;;;;20.55;10.32;;;15.60;58.60;15.90;99973.00;;;;342949;28;83668;-87
2021/04/24 00:01:42;;;;;;;20.75;9.65;;;15.60;58.90;15.90;99969.00;;;;342326;28;97095;-87
2021/04/24 00:01:54;;;;;;;19.58;8.88;;;15.60;58.60;15.90;99972.00;;;;342906;28;86157;-87
2021/04/24 00:02:07;;;;;;;20.67;9.20;;;15.60;58.60;15.80;99975.00;;;;340933;28;94740;-87
2021/04/24 00:02:18;;;;;;;21.38;9.30;;;15.60;58.80;15.80;99977.00;;;;340027;28;84660;-87
2021/04/24 00:02:30;;;;;;;21.75;9.38;;;15.60;58.60;15.70;99971.00;;;;338359;28;96615;-87
2021/04/24 00:02:42;;;;;;;22.92;9.50;;;15.60;58.50;15.80;99973.00;;;;343013;28;84777;-88
2021/04/24 00:02:54;;;;;;;22.17;9.18;;;15.60;58.50;15.80;99969.00;;;;339569;28;97751;-87
2021/04/24 00:03:08;;;;;;;21.75;9.23;;;15.60;58.60;15.80;99971.00;;;;342804;28;84123;-88
2021/04/24 00:03:19;;;;;;;18.55;9.57;;;15.60;58.80;15.70;99976.00;;;;339530;28;97400;-88
2021/04/24 00:03:30;;;;;;;18.08;9.27;;;15.60;58.70;15.80;99965.00;;;;342923;28;84569;-87
2021/04/24 00:03:42;;;;;;;18.17;9.20;;;15.60;58.50;15.60;99968.00;;;;340981;28;97570;-87
2021/04/24 00:03:54;;;;;;;19.50;9.73;;;15.50;58.80;15.60;99968.00;;;;340328;28;84884;-88
2021/04/24 00:04:06;;;;;;;17.75;9.15;;;15.60;58.80;15.40;99966.00;;;;339368;28;97290;-88
2021/04/24 00:04:18;;;;;;;16.13;8.88;;;15.50;58.80;15.50;99972.00;;;;340161;28;84082;-90
2021/04/24 00:04:30;;;;;;;17.08;8.85;;;15.50;58.90;15.40;99965.00;;;;340922;28;97414;-88
2021/04/24 00:04:42;;;;;;;18.52;9.50;;;15.50;59.10;15.50;99968.00;;;;340308;28;84625;-88
2021/04/24 00:04:53;;;;;;;18.77;9.23;;;15.50;58.90;15.60;99966.00;;;;340675;28;97102;-87
2021/04/24 00:05:12;;;;;;;19.98;8.90;;;15.50;58.50;15.70;99982.00;;;;339951;28;83724;-88
2021/04/24 00:05:26;;;;;;;20.48;8.88;;;15.40;58.50;15.70;99975.00;;;;339597;28;97454;-87
2021/04/24 00:05:42;;;;;;;19.40;8.75;;;15.50;58.50;15.50;99968.00;;;;341594;28;84985;-88
2021/04/24 00:05:54;;;;;;;17.45;8.90;;;15.40;58.90;15.50;99976.00;;;;342255;28;97680;-88
2021/04/24 00:06:05;;;;;;;15.27;8.93;;;15.40;59.00;15.70;99971.00;;;;341656;28;84894;-89
2021/04/24 00:06:17;;;;;;;14.82;8.77;;;15.40;58.80;15.80;99968.00;;;;338123;28;97026;-90
2021/04/24 00:06:28;;;;;;;17.52;8.90;;;15.40;58.80;15.80;99964.00;;;;342978;28;84883;-87
2021/04/24 00:06:40;;;;;;;17.08;8.70;;;15.50;58.90;15.80;99971.00;;;;339627;28;96394;-87
2021/04/24 00:06:51;;;;;;;16.70;8.38;;;15.50;58.70;15.80;99968.00;;;;342975;28;85074;-87
2021/04/24 00:07:03;;;;;;;15.35;8.32;;;15.50;58.90;15.70;99971.00;;;;340885;28;96164;-90
2021/04/24 00:07:14;;;;;;;17.23;8.93;;;15.50;58.80;15.80;99972.00;;;;340363;28;83349;-90
2021/04/24 00:07:26;;;;;;;17.63;8.82;;;15.50;58.60;15.70;99971.00;;;;342237;28;96861;-87
2021/04/24 00:07:37;;;;;;;17.48;8.75;;;15.50;58.80;15.80;99966.00;;;;341703;28;83353;-87
2021/04/24 00:07:53;;;;;;;15.32;8.25;;;15.40;58.70;15.70;99972.00;;;;340809;28;96230;-87
2021/04/24 00:08:06;;;;;;;13.60;8.48;;;15.50;58.90;15.60;99968.00;;;;342863;28;84217;-88
2021/04/24 00:08:18;;;;;;;14.60;8.25;;;15.50;58.90;15.40;99968.00;;;;339504;28;96890;-86
2021/04/24 00:08:29;;;;;;;16.20;8.45;;;15.40;59.30;15.20;99965.00;;;;338506;28;84611;-87
2021/04/24 00:08:41;;;;;;;18.95;8.68;;;15.40;59.40;15.50;99969.00;;;;339610;28;97142;-86
2021/04/24 00:08:52;;;;;;;18.15;8.93;;;15.40;59.00;15.50;99975.00;;;;341608;28;83758;-87
2021/04/24 00:09:04;;;;;;;17.95;9.05;;;15.40;58.80;15.20;99966.00;;;;339546;28;95788;-87
2021/04/24 00:09:15;;;;;;;15.27;8.68;;;15.40;59.30;15.10;99964.00;;;;340132;28;84082;-88
2021/04/24 00:09:27;;;;;;;16.00;8.48;;;15.40;59.60;15.30;99970.00;;;;340885;28;96877;-87
2021/04/24 00:09:39;;;;;;;15.07;7.72;;;15.40;60.20;15.50;99975.00;;;;341586;28;83947;-87
2021/04/24 00:09:50;;;;;;;13.20;7.53;;;15.30;59.00;15.60;99968.00;;;;341040;28;94215;-87
2021/04/24 00:10:03;;;;;;;11.32;7.47;;;15.40;59.30;15.50;99968.00;;;;341645;28;84842;-87
2021/04/24 00:10:16;;;;;;;11.10;7.53;;;15.30;59.20;15.20;99968.00;;;;339551;28;96888;-86
2021/04/24 00:10:28;;;;;;;13.85;8.15;;;15.30;59.50;15.00;99968.00;;;;343051;28;84068;-87
2021/04/24 00:10:42;;;;;;;18.05;8.32;;;15.30;59.70;14.90;99976.00;;;;338225;28;96755;-87
2021/04/24 00:10:54;;;;;;;19.25;8.43;;;15.30;60.40;15.20;99971.00;;;;341482;28;84237;-88
2021/04/24 00:11:05;;;;;;;16.27;8.43;;;15.30;59.50;15.20;99973.00;;;;342312;28;96905;-87
2021/04/24 00:11:17;;;;;;;14.38;8.15;;;15.30;60.10;15.30;99970.00;;;;343079;28;84679;-88
2021/04/24 00:11:28;;;;;;;15.45;8.02;;;15.30;59.50;15.40;99968.00;;;;339761;28;97199;-86
2021/04/24 00:11:40;;;;;;;15.35;7.90;;;15.30;59.60;15.50;99968.00;;;;338894;28;83471;-87
2021/04/24 00:11:51;;;;;;;13.32;7.68;;;15.30;59.70;15.60;99969.00;;;;341007;28;95696;-87
2021/04/24 00:12:03;;;;;;;13.52;7.28;;;15.30;59.70;15.60;99968.00;;;;342733;28;84940;-88
2021/04/24 00:12:15;;;;;;;14.52;7.45;;;15.20;59.70;15.60;99968.00;;;;340859;28;97023;-87
2021/04/24 00:12:27;;;;;;;13.85;7.43;;;15.30;60.00;15.60;99972.00;;;;340392;28;83387;-87
2021/04/24 00:12:38;;;;;;;14.18;7.57;;;15.30;59.80;15.70;99968.00;;;;340918;28;97623;-87
2021/04/24 00:12:49;;;;;;;14.77;7.32;;;15.30;59.60;15.50;99964.00;;;;344400;28;83718;-86
2021/04/24 00:13:01;;;;;;;16.42;7.38;;;15.30;59.60;15.40;99971.00;;;;342297;28;96619;-89
2021/04/24 00:13:13;;;;;;;14.43;7.30;;;15.30;60.60;15.40;99970.00;;;;341854;28;83300;-87
2021/04/24 00:13:24;;;;;;;12.88;7.18;;;15.30;59.80;15.50;99966.00;;;;339493;28;95771;-87
2021/04/24 00:13:36;;;;;;;13.20;7.15;;;15.30;59.90;15.50;99970.00;;;;341514;28;83436;-88
2021/04/24 00:13:48;;;;;;;13.52;7.78;;;15.30;59.20;15.50;99967.00;;;;341034;28;94350;-88
2021/04/24 00:13:59;;;;;;;13.38;8.25;;;15.30;59.30;15.50;99968.00;;;;341178;28;84908;-87
2021/04/24 00:14:11;;;;;;;13.00;7.78;;;15.30;59.20;15.50;99973.00;;;;338229;28;95933;-87
2021/04/24 00:14:22;;;;;;;14.00;7.57;;;15.30;59.20;15.40;99968.00;;;;340286;28;84488;-88
2021/04/24 00:14:34;;;;;;;15.60;8.15;;;15.30;59.50;15.30;99960.00;;;;342067;28;96679;-88
2021/04/24 00:14:45;;;;;;;14.95;7.93;;;15.20;60.10;15.20;99968.00;;;;341533;28;84788;-88
2021/04/24 00:14:57;;;;;;;14.68;7.60;;;15.20;60.00;15.30;99964.00;;;;343597;28;94905;-87
2021/04/24 00:15:10;;;;;;;13.65;7.10;;;15.20;59.80;15.20;99968.00;;;;342981;28;85117;-87
2021/04/24 00:15:22;;;;;;;12.43;7.25;;;15.20;59.80;15.30;99968.00;;;;339501;28;98015;-86
2021/04/24 00:15:34;;;;;;;11.75;7.07;;;15.20;59.80;15.50;99966.00;;;;341538;28;84629;-86
2021/04/24 00:15:46;;;;;;;12.35;7.30;;;15.20;59.80;15.50;99966.00;;;;339626;28;96572;-88
2021/04/24 00:15:58;;;;;;;14.07;7.95;;;15.20;59.80;15.50;99967.00;;;;341743;28;83386;-87
2021/04/24 00:16:09;;;;;;;13.57;7.80;;;15.20;59.80;15.50;99970.00;;;;339573;28;97178;-87
2021/04/24 00:16:21;;;;;;;13.70;7.55;;;15.20;59.60;15.50;99962.00;;;;344341;28;85042;-86
2021/04/24 00:16:33;;;;;;;16.27;7.75;;;15.20;59.30;15.60;99965.00;;;;339695;28;96052;-87
2021/04/24 00:16:44;;;;;;;17.75;8.00;;;15.20;59.60;15.30;99964.00;;;;341658;28;85084;-87
2021/04/24 00:16:56;;;;;;;18.73;8.00;;;15.20;60.00;15.40;99969.00;;;;340676;28;94497;-87
2021/04/24 00:17:08;;;;;;;17.60;8.07;;;15.20;59.80;15.50;99968.00;;;;340349;28;84853;-87
2021/04/24 00:17:19;;;;;;;16.90;7.57;;;15.20;59.50;15.50;99967.00;;;;340778;28;98116;-86
2021/04/24 00:17:31;;;;;;;14.35;7.63;;;15.20;59.50;15.50;99964.00;;;;340163;28;83780;-87
2021/04/24 00:17:43;;;;;;;14.02;7.18;;;15.20;59.40;15.50;99966.00;;;;340972;28;96910;-86
2021/04/24 00:17:55;;;;;;;15.73;7.47;;;15.20;59.50;15.60;99968.00;;;;338905;28;84755;-87
2021/04/24 00:18:07;;;;;;;16.52;8.00;;;15.20;59.80;15.50;99967.00;;;;342368;28;97203;-86
2021/04/24 00:18:18;;;;;;;13.80;7.72;;;15.20;60.20;15.60;99958.00;;;;341701;28;83894;-87
2021/04/24 00:18:30;;;;;;;14.10;7.20;;;15.20;59.90;15.30;99968.00;;;;341011;28;95743;-87
2021/04/24 00:18:42;;;;;;;14.10;7.03;;;15.20;60.40;15.30;99965.00;;;;341766;28;84155;-87
2021/04/24 00:18:54;;;;;;;15.25;7.28;;;15.20;60.20;15.50;99961.00;;;;342231;28;96059;-87
2021/04/24 00:19:06;;;;;;;14.20;7.60;;;15.20;60.00;15.40;99964.00;;;;344225;28;83706;-87
2021/04/24 00:19:18;;;;;;;11.63;7.25;;;15.20;60.10;15.50;99971.00;;;;340923;28;96774;-87
2021/04/24 00:19:29;;;;;;;11.65;7.20;;;15.20;60.80;15.50;99969.00;;;;340203;28;84603;-86
2021/04/24 00:19:41;;;;;;;15.15;7.72;;;15.20;60.40;15.60;99969.00;;;;340888;28;97098;-87
2021/04/24 00:19:52;;;;;;;16.00;7.95;;;15.20;60.20;15.60;99970.00;;;;338754;28;83352;-87
2021/04/24 00:20:06;;;;;;;12.38;7.25;;;15.20;60.10;15.50;99968.00;;;;338989;28;97202;-86
2021/04/24 00:20:20;;;;;;;10.75;6.70;;;15.20;59.90;15.50;99958.00;;;;340366;28;82486;-87
2021/04/24 00:20:32;;;;;;;13.60;7.30;;;15.20;59.90;15.40;99965.00;;;;339326;28;97061;-88
2021/04/24 00:20:44;;;;;;;14.88;7.72;;;15.20;60.50;15.50;99971.00;;;;340174;28;83635;-86
2021/04/24 00:20:55;;;;;;;11.88;7.20;;;15.20;60.20;15.50;99966.00;;;;339692;28;95864;-87
2021/04/24 00:21:07;;;;;;;11.65;7.10;;;15.20;60.10;15.50;99976.00;;;;341707;28;84276;-86
2021/04/24 00:21:19;;;;;;;12.50;7.10;;;15.20;59.90;15.50;99964.00;;;;339481;28;98488;-88
2021/04/24 00:21:30;;;;;;;14.00;7.43;;;15.20;59.80;15.50;99964.00;;;;338965;28;84659;-86
2021/04/24 00:21:42;;;;;;;14.27;7.15;;;15.20;60.30;15.30;99965.00;;;;339578;28;97483;-87
2021/04/24 00:21:53;;;;;;;15.20;7.18;;;15.20;61.20;15.30;99968.00;;;;337379;28;84819;-86
2021/04/24 00:22:05;;;;;;;15.63;7.13;;;15.20;60.50;15.40;99971.00;;;;339533;28;96939;-87
2021/04/24 00:22:16;;;;;;;16.10;7.07;;;15.20;59.90;15.50;99967.00;;;;338936;28;84991;-86
2021/04/24 00:22:28;;;;;;;16.55;7.05;;;15.20;59.70;15.50;99965.00;;;;340849;28;94191;-87
2021/04/24 00:22:39;;;;;;;16.08;7.30;;;15.20;60.70;15.40;99964.00;;;;338954;28;85076;-87
2021/04/24 00:22:52;;;;;;;14.15;6.90;;;15.20;60.40;15.30;99969.00;;;;343537;28;94780;-87
2021/04/24 00:23:03;;;;;;;12.88;6.75;;;15.20;60.70;15.30;99972.00;;;;342598;28;84974;-88
2021/04/24 00:23:15;;;;;;;13.88;6.97;;;15.20;60.90;15.40;99970.00;;;;340617;28;98206;-87
2021/04/24 00:23:26;;;;;;;15.05;7.25;;;15.20;60.50;15.50;99968.00;;;;342216;28;85242;-87
2021/04/24 00:23:38;;;;;;;15.55;7.35;;;15.20;60.20;15.60;99966.00;;;;340774;28;95953;-88
2021/04/24 00:23:49;;;;;;;15.35;7.35;;;15.20;60.50;15.60;99966.00;;;;337570;28;83756;-87
2021/04/24 00:24:00;;;;;;;13.18;7.25;;;15.20;60.80;15.50;99966.00;;;;337708;28;96946;-87
2021/04/24 00:24:12;;;;;;;13.20;7.35;;;15.30;60.40;15.50;99963.00;;;;340222;28;84407;-87
2021/04/24 00:24:23;;;;;;;11.07;6.53;;;15.20;60.00;15.60;99966.00;;;;339460;28;95915;-87
2021/04/24 00:24:35;;;;;;;10.52;6.30;;;15.20;60.50;15.60;99965.00;;;;341666;28;84712;-87
2021/04/24 00:24:46;;;;;;;14.90;6.47;;;15.30;60.70;15.60;99972.00;;;;340965;28;97054;-87
2021/04/24 00:24:57;;;;;;;14.75;7.07;;;15.30;60.70;15.40;99962.00;;;;340270;28;84837;-87
2021/04/24 00:25:10;;;;;;;14.30;6.95;;;15.20;60.80;15.40;99964.00;;;;338269;28;97126;-87
2021/04/24 00:25:22;;;;;;;11.20;6.63;;;15.30;60.80;15.20;99967.00;;;;342982;28;83811;-87
2021/04/24 00:25:34;;;;;;;11.10;6.82;;;15.20;60.90;15.10;99973.00;;;;340792;28;97075;-86
2021/04/24 00:25:46;;;;;;;9.75;6.63;;;15.20;60.70;15.00;99970.00;;;;341566;28;84896;-87
2021/04/24 00:25:57;;;;;;;11.38;6.85;;;15.20;61.10;15.20;99969.00;;;;339610;28;97030;-87
2021/04/24 00:26:09;;;;;;;13.80;7.32;;;15.20;60.60;15.30;99979.00;;;;341569;28;84892;-87
2021/04/24 00:26:21;;;;;;;14.63;7.30;;;15.10;60.60;15.30;99965.00;;;;340914;28;96913;-86
2021/04/24 00:26:32;;;;;;;13.60;7.45;;;15.10;60.60;15.40;99972.00;;;;340167;28;83830;-86
2021/04/24 00:26:43;;;;;;;13.25;7.90;;;15.10;60.60;15.30;99966.00;;;;341067;28;93364;-87
2021/04/24 00:26:55;;;;;;;13.10;7.97;;;15.10;60.60;15.40;99978.00;;;;340033;28;84412;-88
2021/04/24 00:27:06;;;;;;;13.13;7.82;;;15.10;60.30;15.40;99977.00;;;;341970;28;98409;-87
2021/04/24 00:27:18;;;;;;;13.48;7.72;;;15.10;60.60;15.50;99980.00;;;;340404;28;85001;-86
2021/04/24 00:27:29;;;;;;;12.75;7.60;;;15.20;61.00;15.50;99970.00;;;;340934;28;97289;-87
2021/04/24 00:27:40;;;;;;;12.70;7.22;;;15.20;61.00;15.50;99972.00;;;;340226;28;83513;-87
2021/04/24 00:27:52;;;;;;;12.05;7.25;;;15.20;60.80;15.50;99977.00;;;;339671;28;96365;-87
2021/04/24 00:28:04;;;;;;;12.88;7.55;;;15.10;60.70;15.30;99973.00;;;;338929;28;83528;-87
2021/04/24 00:28:15;;;;;;;12.93;7.82;;;15.10;61.10;15.20;99975.00;;;;338272;28;96496;-86
2021/04/24 00:28:26;;;;;;;13.85;7.80;;;15.10;61.10;15.20;99984.00;;;;339007;28;83449;-87
2021/04/24 00:28:38;;;;;;;12.18;7.38;;;15.10;61.50;15.10;99968.00;;;;338296;28;93301;-87
2021/04/24 00:28:49;;;;;;;11.05;7.32;;;15.00;60.70;15.20;99976.00;;;;341688;28;83380;-87
2021/04/24 00:29:02;;;;;;;11.68;6.93;;;15.10;60.60;15.30;99975.00;;;;338973;28;97137;-87
2021/04/24 00:29:13;;;;;;;11.32;6.78;;;15.10;60.30;15.40;99980.00;;;;343880;28;85007;-87
2021/04/24 00:29:25;;;;;;;11.10;6.75;;;15.10;60.50;15.40;99977.00;;;;340830;28;97134;-87
2021/04/24 00:29:36;;;;;;;10.23;6.88;;;15.10;60.40;15.40;99978.00;;;;341409;28;83697;-88
2021/04/24 00:29:47;;;;;;;9.93;7.07;;;15.10;60.80;15.20;99978.00;;;;340588;28;96907;-88
2021/04/24 00:29:59;;;;;;;11.02;7.28;;;15.10;60.90;15.20;99974.00;;;;341628;28;83620;-86
2021/04/24 00:30:12;;;;;;;12.50;8.02;;;15.10;61.10;15.30;99976.00;;;;342221;28;97377;-86
2021/04/24 00:30:23;;;;;;;12.88;8.10;;;15.10;60.80;15.40;99980.00;;;;340312;28;84374;-86
2021/04/24 00:30:35;;;;;;;11.65;7.70;;;15.10;60.70;15.40;99977.00;;;;339527;28;96695;-87
2021/04/24 00:30:46;;;;;;;11.45;7.35;;;15.10;60.70;15.40;99977.00;;;;342951;28;84953;-87
2021/04/24 00:30:58;;;;;;;12.40;7.20;;;15.10;60.70;15.40;99973.00;;;;339476;28;97992;-87
2021/04/24 00:31:10;;;;;;;13.10;7.20;;;15.10;60.80;15.40;99976.00;;;;342941;28;84714;-88
2021/04/24 00:31:21;;;;;;;13.13;6.95;;;15.10;61.30;15.40;99981.00;;;;339631;28;96709;-86
2021/04/24 00:31:33;;;;;;;12.90;7.40;;;15.10;60.60;15.40;99971.00;;;;341472;28;82634;-87
2021/04/24 00:31:45;;;;;;;12.60;7.50;;;15.10;60.70;15.40;99980.00;;;;342200;28;96127;-88
2021/04/24 00:31:56;;;;;;;11.73;7.50;;;15.10;60.70;15.40;99978.00;;;;340526;28;84845;-87
2021/04/24 00:32:08;;;;;;;12.75;7.63;;;15.10;61.00;15.40;99985.00;;;;339879;28;97285;-87
2021/04/24 00:32:20;;;;;;;12.07;7.50;;;15.10;61.00;15.20;99977.00;;;;344241;28;85103;-87
2021/04/24 00:32:31;;;;;;;11.20;7.32;;;15.20;61.40;15.30;99978.00;;;;340948;28;96324;-86
2021/04/24 00:32:44;;;;;;;13.80;6.80;;;15.10;60.80;15.10;99974.00;;;;341575;28;84958;-86
2021/04/24 00:32:56;;;;;;;16.30;6.97;;;15.10;61.00;15.20;99979.00;;;;339439;28;94010;-87
2021/04/24 00:33:08;;;;;;;15.88;7.40;;;15.10;60.70;15.30;99978.00;;;;341565;28;84573;-88
2021/04/24 00:33:20;;;;;;;12.75;8.20;;;15.10;60.80;15.30;99987.00;;;;342347;28;96113;-87
2021/04/24 00:33:32;;;;;;;13.65;8.27;;;15.10;60.90;15.30;99982.00;;;;340094;28;84533;-87
2021/04/24 00:33:43;;;;;;;12.60;7.65;;;15.10;61.10;15.40;99983.00;;;;340934;28;94551;-87
2021/04/24 00:33:55;;;;;;;10.90;7.32;;;15.10;60.90;15.30;99983.00;;;;340294;28;83870;-87
2021/04/24 00:34:06;;;;;;;10.30;7.20;;;15.10;61.10;15.20;99984.00;;;;340939;28;96611;-86
2021/04/24 00:34:18;;;;;;;10.82;7.40;;;15.00;61.00;15.20;99982.00;;;;340230;28;85378;-87
2021/04/24 00:34:29;;;;;;;12.45;7.88;;;15.10;61.30;15.20;99981.00;;;;340964;28;97311;-87
2021/04/24 00:34:40;;;;;;;12.05;7.93;;;15.10;60.80;15.20;99976.00;;;;340331;28;84739;-86
2021/04/24 00:34:52;;;;;;;12.02;7.63;;;15.00;60.90;15.30;99981.00;;;;337808;28;97067;-88
2021/04/24 00:35:04;;;;;;;12.57;7.25;;;15.00;60.60;15.30;99982.00;;;;340831;28;84860;-87
2021/04/24 00:35:17;;;;;;;13.63;7.22;;;15.10;61.10;15.30;99977.00;;;;340761;28;97162;-88
2021/04/24 00:35:28;;;;;;;15.30;7.72;;;15.10;61.10;15.30;99973.00;;;;339579;28;84807;-87
2021/04/24 00:35:40;;;;;;;15.52;8.02;;;15.10;60.90;15.30;99977.00;;;;339576;28;94549;-87
2021/04/24 00:35:52;;;;;;;13.73;7.80;;;15.10;60.90;15.30;99982.00;;;;341635;28;84438;-87
2021/04/24 00:36:04;;;;;;;12.15;7.15;;;15.10;61.10;15.10;99976.00;;;;339558;28;97741;-87
2021/04/24 00:36:15;;;;;;;11.73;7.25;;;15.10;61.40;15.20;99977.00;;;;340086;28;84744;-87
2021/04/24 00:36:27;;;;;;;11.74;7.02;;;15.10;61.50;15.20;99978.00;;;;339490;28;97858;-87
2021/04/24 00:36:38;;;;;;;11.65;6.97;;;15.10;61.50;15.20;99975.00;;;;341706;28;82315;-88
2021/04/24 00:36:50;;;;;;;12.14;7.22;;;15.10;61.30;15.10;99977.00;;;;337905;28;98874;-91
2021/04/24 00:37:01;;;;;;;12.77;7.72;;;15.10;61.50;15.10;99982.00;;;;341701;28;83619;-87
2021/04/24 00:37:12;;;;;;;11.45;7.28;;;15.10;61.00;14.90;99973.00;;;;338221;28;96992;-88
2021/04/24 00:37:24;;;;;;;10.02;6.88;;;15.00;60.80;14.90;99978.00;;;;341614;28;85000;-87
2021/04/24 00:37:35;;;;;;;11.23;7.10;;;15.00;61.20;15.00;99981.00;;;;340623;28;96062;-89
2021/04/24 00:37:47;;;;;;;10.98;6.90;;;15.00;61.30;15.10;99981.00;;;;340218;28;83545;-88
2021/04/24 00:37:58;;;;;;;11.07;6.85;;;15.00;61.20;15.10;99981.00;;;;339184;28;96382;-87
2021/04/24 00:38:10;;;;;;;11.35;7.13;;;15.00;61.70;14.90;99977.00;;;;342264;28;84490;-87
2021/04/24 00:38:21;;;;;;;12.25;7.40;;;15.00;61.50;14.70;99976.00;;;;338189;28;97536;-87
2021/04/24 00:38:33;;;;;;;10.95;6.90;;;14.90;61.60;14.70;99978.00;;;;341623;28;83900;-88
2021/04/24 00:38:44;;;;;;;11.07;7.03;;;14.90;61.60;14.70;99978.00;;;;339471;28;97916;-87
2021/04/24 00:38:57;;;;;;;11.95;7.40;;;14.90;61.80;14.90;99982.00;;;;339961;28;83467;-87
2021/04/24 00:39:08;;;;;;;11.50;7.53;;;14.90;61.90;14.90;99973.00;;;;339563;28;96846;-87
2021/04/24 00:39:19;;;;;;;9.60;6.78;;;14.90;61.90;14.90;99979.00;;;;341637;28;83419;-87
2021/04/24 00:39:31;;;;;;;11.30;6.95;;;14.90;61.70;14.60;99987.00;;;;340970;28;96003;-86
2021/04/24 00:39:42;;;;;;;10.95;6.57;;;14.90;61.80;14.70;99978.00;;;;340149;28;84670;-86
2021/04/24 00:39:54;;;;;;;12.60;6.55;;;14.90;61.70;14.90;99972.00;;;;339466;28;97452;-87
2021/04/24 00:40:07;;;;;;;10.95;6.45;;;14.90;61.80;14.90;99978.00;;;;338832;28;83747;-87
2021/04/24 00:40:19;;;;;;;10.73;6.55;;;14.90;61.60;14.70;99975.00;;;;338222;28;97174;-87
2021/04/24 00:40:30;;;;;;;8.55;6.28;;;14.90;61.80;14.60;99976.00;;;;342776;28;83505;-87
2021/04/24 00:40:41;;;;;;;8.40;6.47;;;14.90;62.00;14.70;99979.00;;;;338159;28;97680;-87
2021/04/24 00:40:54;;;;;;;8.93;6.82;;;14.80;61.70;14.80;99980.00;;;;340086;28;84616;-87
2021/04/24 00:41:05;;;;;;;8.80;6.60;;;14.80;61.80;14.50;99973.00;;;;341722;28;96564;-88
2021/04/24 00:41:17;;;;;;;8.77;6.70;;;14.80;62.20;14.40;99989.00;;;;338919;28;83711;-87
2021/04/24 00:41:28;;;;;;;8.90;6.38;;;14.80;62.30;14.40;99979.00;;;;342072;28;96859;-88
2021/04/24 00:41:40;;;;;;;9.45;6.13;;;14.80;62.50;14.60;99981.00;;;;342956;28;83710;-87
2021/04/24 00:41:51;;;;;;;10.48;6.07;;;14.80;62.30;14.70;99973.00;;;;343570;28;97429;-87
2021/04/24 00:42:03;;;;;;;11.25;6.25;;;14.70;61.90;14.50;99976.00;;;;341558;28;85016;-89
2021/04/24 00:42:14;;;;;;;11.57;6.55;;;14.70;62.70;14.50;99980.00;;;;339514;28;96373;-87
2021/04/24 00:42:26;;;;;;;10.18;6.97;;;14.70;62.50;14.60;99981.00;;;;341592;28;85353;-87
2021/04/24 00:42:38;;;;;;;9.05;6.90;;;14.70;62.20;14.80;99978.00;;;;342104;28;96883;-88
2021/04/24 00:42:49;;;;;;;8.93;7.18;;;14.70;62.10;14.40;99980.00;;;;338856;28;84804;-86
2021/04/24 00:43:01;;;;;;;10.00;7.18;;;14.70;62.40;14.50;99982.00;;;;339683;28;94704;-88
2021/04/24 00:43:18;;;;;;;9.43;7.28;;;14.70;62.50;14.70;99973.00;;;;337613;28;83564;-86
2021/04/24 00:43:29;;;;;;;9.43;6.65;;;14.70;62.20;14.60;99978.00;;;;339513;28;97719;-86
2021/04/24 00:43:41;;;;;;;9.10;6.18;;;14.70;62.40;14.70;99979.00;;;;341707;28;83563;-87
2021/04/24 00:43:52;;;;;;;8.88;6.20;;;14.60;62.30;14.50;99982.00;;;;340664;28;96774;-88
2021/04/24 00:44:04;;;;;;;8.85;5.95;;;14.60;62.60;14.30;99979.00;;;;339316;28;83305;-87
2021/04/24 00:44:16;;;;;;;8.52;5.80;;;14.60;62.80;14.40;99983.00;;;;340573;28;96146;-88
2021/04/24 00:44:27;;;;;;;9.73;5.53;;;14.60;62.40;14.50;99984.00;;;;340777;28;84908;-87
2021/04/24 00:44:51;;;;;;;9.10;5.43;;;14.60;62.40;14.60;99978.00;;;;338267;28;96695;-87
2021/04/24 00:45:05;;;;;;;8.20;5.72;;;14.60;62.50;14.50;99980.00;;;;341256;28;85527;-88
2021/04/24 00:45:21;;;;;;;8.25;5.88;;;14.60;62.80;14.70;99979.00;;;;339407;28;96556;-87
2021/04/24 00:45:32;;;;;;;8.18;5.70;;;14.60;63.00;14.40;99983.00;;;;341559;28;85011;-88
2021/04/24 00:45:44;;;;;;;9.02;5.85;;;14.60;62.50;14.20;99979.00;;;;339465;28;97646;-92
2021/04/24 00:45:55;;;;;;;9.02;6.13;;;14.60;62.60;14.30;99985.00;;;;342952;28;83697;-87
2021/04/24 00:46:11;;;;;;;9.02;5.85;;;14.60;62.70;14.30;99980.00;;;;338238;28;96780;-87
2021/04/24 00:46:23;;;;;;;8.75;5.57;;;14.60;62.70;14.20;99980.00;;;;340089;28;84090;-87
2021/04/24 00:46:35;;;;;;;9.43;5.90;;;14.50;62.70;14.10;99981.00;;;;339649;28;95178;-87
2021/04/24 00:46:47;;;;;;;9.23;5.57;;;14.50;62.90;14.00;99981.00;;;;340281;28;84683;-87
2021/04/24 00:46:58;;;;;;;7.07;5.30;;;14.50;62.90;14.30;99972.00;;;;342510;28;95430;-88
2021/04/24 00:47:10;;;;;;;7.10;5.13;;;14.50;62.90;14.50;99977.00;;;;342709;28;83176;-87
2021/04/24 00:47:22;;;;;;;7.80;5.30;;;14.50;62.70;14.60;99981.00;;;;340996;28;95538;-86
2021/04/24 00:47:34;;;;;;;8.10;4.95;;;14.50;62.90;14.60;99980.00;;;;341588;28;84784;-87
2021/04/24 00:47:45;;;;;;;9.18;5.07;;;14.50;62.80;14.60;99977.00;;;;339551;28;96832;-89
2021/04/24 00:47:58;;;;;;;9.07;5.28;;;14.50;62.60;14.50;99983.00;;;;341708;28;83480;-87
2021/04/24 00:48:10;;;;;;;8.05;5.45;;;14.50;62.70;14.30;99975.00;;;;336809;28;97735;-86
2021/04/24 00:48:21;;;;;;;7.80;5.63;;;14.50;62.90;14.40;99983.00;;;;341653;28;84591;-86
2021/04/24 00:48:33;;;;;;;6.97;5.60;;;14.50;62.90;14.40;99978.00;;;;340932;28;96855;-87
2021/04/24 00:48:44;;;;;;;8.85;5.78;;;14.50;62.90;14.30;99973.00;;;;340247;28;84228;-86
2021/04/24 00:48:57;;;;;;;9.32;5.68;;;14.50;62.90;14.40;99979.00;;;;338002;28;98383;-87
2021/04/24 00:49:13;;;;;;;9.05;5.95;;;14.50;62.60;14.60;99978.00;;;;340251;28;84978;-86
2021/04/24 00:49:24;;;;;;;8.15;5.85;;;14.50;62.50;14.70;99977.00;;;;340961;28;95838;-86
2021/04/24 00:49:36;;;;;;;7.20;5.28;;;14.40;62.90;14.70;99969.00;;;;341599;28;84008;-87
2021/04/24 00:49:47;;;;;;;6.18;4.55;;;14.40;62.50;14.70;99973.00;;;;340656;28;97610;-88
2021/04/24 00:49:59;;;;;;;7.57;4.72;;;14.40;62.70;14.50;99973.00;;;;340841;28;85544;-86
2021/04/24 00:50:11;;;;;;;8.90;5.45;;;14.40;63.10;14.60;99976.00;;;;339377;28;96643;-86
2021/04/24 00:50:28;;;;;;;8.07;5.38;;;14.40;62.80;14.60;99978.00;;;;341523;28;85027;-88
2021/04/24 00:50:40;;;;;;;6.80;5.38;;;14.40;63.00;14.40;99976.00;;;;340765;28;94198;-87
2021/04/24 00:50:52;;;;;;;6.63;5.60;;;14.40;63.10;14.30;99974.00;;;;338654;28;84106;-87
2021/04/24 00:51:05;;;;;;;6.32;5.60;;;14.30;63.30;14.40;99974.00;;;;341893;28;98206;-88
2021/04/24 00:51:16;;;;;;;7.32;5.55;;;14.40;63.20;14.40;99972.00;;;;341438;28;82613;-89
2021/04/24 00:51:28;;;;;;;7.68;5.93;;;14.40;63.10;14.50;99971.00;;;;339330;28;96449;-87
2021/04/24 00:51:39;;;;;;;8.32;6.05;;;14.40;63.00;14.60;99968.00;;;;344304;28;85165;-86
2021/04/24 00:51:51;;;;;;;7.80;5.82;;;14.40;62.70;14.50;99969.00;;;;342245;28;96627;-86
2021/04/24 00:52:03;;;;;;;7.40;5.45;;;14.40;62.80;14.40;99965.00;;;;340194;28;85174;-87
2021/04/24 00:52:17;;;;;;;7.18;5.32;;;14.40;63.20;14.50;99971.00;;;;338097;28;97006;-87
2021/04/24 00:52:28;;;;;;;6.80;5.28;;;14.40;62.70;14.60;99971.00;;;;341339;28;85017;-86
2021/04/24 00:52:39;;;;;;;5.63;5.00;;;14.40;62.60;14.60;99972.00;;;;339576;28;97006;-87
2021/04/24 00:52:51;;;;;;;7.95;5.22;;;14.40;62.70;14.60;99965.00;;;;340266;28;83351;-87
2021/04/24 00:53:03;;;;;;;8.52;5.63;;;14.40;62.40;14.60;99972.00;;;;339403;28;94330;-87
2021/04/24 00:53:14;;;;;;;9.07;5.53;;;14.40;62.90;14.60;99968.00;;;;341498;28;84482;-87